Latest Weather Observations for Ballarat

IDV60801

Issued at 4:12 pm EDT Monday 30 March 2020 (issued every 10 minutes, with the page automatically refreshed every 10 minutes)

About weather observations | Map of weather stations | Latest weather observations for VIC | Other Formats
Station Details ID: 089002 Name: BALLARAT AERODROME Lat: -37.51 Lon: 143.79 Height: 435.2 m
Data from the previous 72 hours. | See also: Recent months at Ballarat
Date/Time
EDT
Temp
°C
App
Temp
°C
Dew
Point
°C
Rel
Hum
%
Delta-T
°C
Wind Press
QNH
hPa
Press
MSL
hPa
Rain since
9am
mm
Dir  Spd
km/h
Gust
km/h
Spd
kts
Gust
kts
30/04:00pm 19.6 15.3 7.0 44 6.5 W 19 30 10 16 1013.8 1012.8 0.2
30/03:30pm 19.8 16.0 7.5 45 6.4 WSW 17 24 9 13 1013.9 1012.9 0.0
30/03:00pm 19.3 15.2 7.7 47 6.1 W 19 30 10 16 1013.8 1012.8 0.0
30/02:30pm 19.2 14.0 7.3 46 6.2 W 24 39 13 21 1014.0 1013.0 0.0
30/02:00pm 17.6 13.8 7.4 51 5.2 WSW 17 24 9 13 1014.2 1013.2 0.0
30/01:30pm 17.6 13.1 8.7 56 4.7 W 22 32 12 17 1014.5 1013.5 0.0
30/01:00pm 16.6 12.9 8.1 57 4.4 W 17 24 9 13 1014.3 1013.3 0.0
30/12:30pm 16.4 12.8 8.4 59 4.2 W 17 24 9 13 1014.6 1013.6 0.0
30/12:00pm 15.7 12.1 8.4 62 3.8 WSW 17 22 9 12 1014.7 1013.7 0.0
30/11:30am 15.3 12.4 9.7 69 3.0 W 15 22 8 12 1014.8 1013.8 0.0
30/11:00am 14.4 10.4 9.0 70 2.8 W 20 28 11 15 1014.9 1013.9 0.0
30/10:30am 14.5 10.9 9.7 73 2.5 SW 19 24 10 13 1014.8 1013.8 0.0
30/10:00am 13.9 11.2 10.5 80 1.8 WSW 15 22 8 12 1014.4 1013.4 0.0
30/09:30am 12.7 11.0 12.5 99 0.1 W 13 17 7 9 1014.0 1013.0 0.0
30/09:00am 11.7 9.8 11.7 100 0.0 WSW 13 19 7 10 1013.7 1012.7 6.6
30/08:30am 10.6 9.7 10.6 100 0.0 WSW 6 11 3 6 1013.5 1012.4 6.6
30/08:00am 9.6 8.4 9.6 100 0.0 WSW 6 9 3 5 1013.3 1012.2 6.6
30/07:30am 9.7 8.0 9.7 100 0.0 W 9 13 5 7 1012.8 1011.8 6.6
30/07:00am 10.0 8.9 10.0 100 0.0 SW 6 9 3 5 1012.5 1011.5 6.6
30/06:32am 10.3 8.7 10.3 100 0.0 WSW 9 11 5 6 1012.2 1011.2 6.6
30/06:30am 10.4 9.2 10.4 100 0.0 WSW 7 11 4 6 1012.2 1011.2 6.6
30/06:00am 11.1 9.8 11.1 100 0.0 WSW 9 11 5 6 1012.1 1011.1 6.6
30/05:30am 11.8 11.2 11.8 100 0.0 SSW 6 7 3 4 1012.0 1011.0 6.6
30/05:17am 11.8 11.6 11.8 100 0.0 SSW 4 7 2 4 1011.9 1010.9 6.6
30/05:00am 11.9 11.2 11.9 100 0.0 S 7 9 4 5 1011.8 1010.8 6.6
30/04:30am 11.4 10.1 11.4 100 0.0 S 9 11 5 6 1011.8 1010.8 6.6
30/04:00am 11.5 10.6 11.5 100 0.0 SE 7 7 4 4 1011.8 1010.8 6.6
30/03:30am 12.3 11.3 12.3 100 0.0 ESE 9 11 5 6 1012.0 1011.0 6.6
30/03:00am 12.4 11.1 12.4 100 0.0 S 11 13 6 7 1012.4 1011.4 6.6
30/02:50am 12.4 10.7 12.4 100 0.0 S 13 15 7 8 1012.4 1011.4 6.6
30/02:30am 12.4 11.1 12.4 100 0.0 S 11 15 6 8 1012.4 1011.4 6.6
30/02:21am 12.1 10.7 12.1 100 0.0 S 11 15 6 8 1012.3 1011.3 6.6
30/02:00am 11.9 10.4 11.9 100 0.0 SSE 11 13 6 7 1012.5 1011.5 6.6
30/01:30am 11.7 10.1 11.7 100 0.0 SSE 11 13 6 7 1012.5 1011.5 6.6
30/01:00am 13.0 11.4 12.8 99 0.1 SSE 13 17 7 9 1012.6 1011.6 6.6
30/12:30am 13.5 12.1 13.3 99 0.1 SE 13 17 7 9 1012.8 1011.8 6.6
30/12:00am 14.0 13.1 13.8 99 0.1 SE 11 13 6 7 1012.9 1011.9 6.6
 
Date/Time
EDT
Temp
°C
App
Temp
°C
Dew
Point
°C
Rel
Hum
%
Delta-T
°C
Wind Press
QNH
hPa
Press
MSL
hPa
Rain since
9am
mm
Dir  Spd
km/h
Gust
km/h
Spd
kts
Gust
kts
29/11:30pm 14.8 13.8 14.5 98 0.2 S 13 17 7 9 1012.7 1011.7 6.6
29/11:00pm 16.3 16.3 13.6 84 1.6 WSW 6 15 3 8 1012.3 1011.3 6.6
29/10:30pm 16.6 14.1 13.5 82 1.8 N 19 24 10 13 1012.0 1011.0 6.6
29/10:00pm 16.4 14.3 13.7 84 1.6 N 17 20 9 11 1012.1 1011.1 6.6
29/09:30pm 16.9 14.6 13.0 78 2.2 N 17 20 9 11 1011.7 1010.7 6.6
29/09:00pm 17.4 15.3 12.3 72 2.9 NNE 15 17 8 9 1011.6 1010.6 6.6
29/08:30pm 18.7 15.5 11.8 64 3.9 N 20 26 11 14 1011.1 1010.0 6.6
29/08:00pm 18.7 16.2 12.2 66 3.7 N 17 20 9 11 1011.0 1009.9 6.6
29/07:30pm 18.3 16.6 12.3 68 3.4 N 13 17 7 9 1010.9 1009.8 6.6
29/07:00pm 19.9 15.8 11.4 58 4.8 NNW 24 30 13 16 1010.4 1009.4 6.6
29/06:30pm 21.4 16.4 10.9 51 5.9 NW 28 39 15 21 1009.9 1008.9 6.6
29/06:00pm 21.9 17.2 11.9 53 5.7 NNW 28 35 15 19 1009.4 1008.3 6.6
29/05:30pm 21.9 17.8 13.8 60 4.8 NNW 28 37 15 20 1008.9 1007.8 6.6
29/05:00pm 21.1 16.4 14.3 65 4.1 N 32 41 17 22 1008.9 1007.8 6.6
29/04:30pm 19.5 15.4 15.0 75 2.7 N 30 39 16 21 1009.4 1008.3 6.6
29/04:00pm 18.2 13.1 14.9 81 2.0 N 35 44 19 24 1009.8 1008.8 6.6
29/03:30pm 18.3 16.4 16.8 91 0.9 N 22 30 12 16 1010.3 1009.3 6.6
29/03:00pm 16.7 15.2 16.4 98 0.2 N 19 28 10 15 1010.1 1009.1 6.6
29/02:30pm 16.2 14.6 16.0 99 0.1 N 19 26 10 14 1010.7 1009.7 6.6
29/02:00pm 15.5 14.0 15.3 99 0.1 N 17 20 9 11 1012.4 1011.4 6.4
29/01:42pm 15.3 12.7 15.0 98 0.2 NNW 22 30 12 16 1013.1 1012.1 5.4
29/01:30pm 14.8 10.5 14.5 98 0.2 NW 30 50 16 27 1012.9 1011.9 5.2
29/01:29pm 14.7 10.1 14.5 99 0.1 NW 32 50 17 27 1012.9 1011.9 5.0
29/01:20pm 14.9 8.4 12.8 87 1.2 WNW 39 48 21 26 1013.4 1012.3 2.6
29/01:14pm 17.0 11.3 13.1 78 2.2 WNW 35 48 19 26 1013.5 1012.4 0.2
29/01:00pm 18.6 14.9 13.9 74 2.7 NNW 26 35 14 19 1012.4 1011.4 0.0
29/12:30pm 18.9 13.7 13.5 71 3.1 N 33 44 18 24 1012.0 1011.0 0.0
29/12:00pm 21.1 13.8 11.4 54 5.5 N 41 56 22 30 1012.2 1011.2 0.0
29/11:30am 20.8 13.0 11.2 54 5.4 N 43 54 23 29 1012.3 1011.3 0.0
29/11:00am 21.2 14.4 11.8 55 5.4 N 39 56 21 30 1012.7 1011.7 0.0
29/10:30am 19.8 12.7 10.8 56 5.0 N 39 52 21 28 1013.0 1012.0 0.0
29/10:00am 19.6 11.9 10.3 55 5.1 NNE 41 54 22 29 1013.0 1012.0 0.0
29/09:30am 19.2 13.0 9.9 55 5.1 NNE 33 41 18 22 1013.3 1012.2 0.0
29/09:00am 18.0 11.8 9.4 57 4.6 NNE 32 41 17 22 1013.1 1012.1 0.0
29/08:30am 17.5 11.0 8.9 57 4.6 NNE 33 43 18 23 1013.3 1012.2 0.0
29/08:00am 16.9 10.9 8.6 58 4.4 NNE 30 37 16 20 1013.4 1012.3 0.0
29/07:30am 16.6 11.7 8.3 58 4.3 NNE 24 33 13 18 1013.7 1012.7 0.0
29/07:00am 16.8 11.8 8.0 56 4.6 NNE 24 33 13 18 1013.6 1012.6 0.0
29/06:30am 17.4 11.8 7.2 51 5.2 NNE 26 39 14 21 1013.5 1012.4 0.0
29/06:00am 17.4 11.6 6.3 48 5.6 NNE 26 33 14 18 1013.5 1012.4 0.0
29/05:30am 17.6 11.3 5.9 46 5.8 NNE 28 37 15 20 1013.5 1012.4 0.0
29/05:00am 17.6 10.9 5.5 45 6.0 NNE 30 37 16 20 1013.7 1012.7 0.0
29/04:30am 18.0 11.2 5.2 43 6.3 NNE 30 37 16 20 1013.7 1012.7 0.0
29/04:00am 17.8 11.4 5.1 43 6.3 NNE 28 37 15 20 1014.1 1013.1 0.0
29/03:30am 17.9 11.5 5.2 43 6.3 NNE 28 39 15 21 1014.3 1013.3 0.0
29/03:00am 18.2 11.1 5.4 43 6.4 NNE 32 41 17 22 1014.4 1013.4 0.0
29/02:30am 18.5 10.9 5.7 43 6.4 NNE 35 46 19 25 1014.6 1013.6 0.0
29/02:00am 18.4 11.4 5.9 44 6.3 NNE 32 46 17 25 1015.0 1014.0 0.0
29/01:30am 19.1 12.0 6.2 43 6.5 NNE 33 50 18 27 1015.0 1014.0 0.0
29/01:00am 19.0 12.5 6.5 44 6.4 NNE 30 41 16 22 1015.3 1014.3 0.0
29/12:30am 19.1 12.7 6.9 45 6.3 NNE 30 39 16 21 1015.7 1014.7 0.0
29/12:00am 19.3 12.9 7.1 45 6.3 NNE 30 41 16 22 1016.3 1015.3 0.0
 
Date/Time
EDT
Temp
°C
App
Temp
°C
Dew
Point
°C
Rel
Hum
%
Delta-T
°C
Wind Press
QNH
hPa
Press
MSL
hPa
Rain since
9am
mm
Dir  Spd
km/h
Gust
km/h
Spd
kts
Gust
kts
28/11:30pm 19.5 13.6 7.6 46 6.2 NNE 28 35 15 19 1016.6 1015.6 0.0
28/11:00pm 19.5 13.6 7.6 46 6.2 NNE 28 37 15 20 1016.7 1015.7 0.0
28/10:30pm 20.1 14.3 7.8 45 6.5 NNE 28 35 15 19 1016.8 1015.8 0.0
28/10:00pm 20.4 14.5 7.7 44 6.7 NNE 28 35 15 19 1016.9 1015.9 0.0
28/09:30pm 20.7 15.8 8.4 45 6.6 NNE 24 35 13 19 1017.1 1016.1 0.0
28/09:00pm 20.9 15.2 8.2 44 6.8 NNE 28 39 15 21 1016.9 1015.9 0.0
28/08:30pm 20.9 16.3 8.2 44 6.8 NNE 22 30 12 16 1016.8 1015.8 0.0
28/08:00pm 21.2 16.6 8.1 43 7.0 NNE 22 32 12 17 1016.7 1015.7 0.0
28/07:30pm 21.9 16.4 7.7 40 7.5 NNE 26 35 14 19 1016.7 1015.7 0.0
28/07:00pm 22.6 16.4 8.0 39 7.8 NNE 30 39 16 21 1016.6 1015.6 0.0
28/06:30pm 23.6 16.5 8.1 37 8.4 NNE 35 48 19 26 1016.6 1015.6 0.0
28/06:00pm 24.7 18.0 8.2 35 9.0 N 33 46 18 25 1016.6 1015.6 0.0
28/05:30pm 24.2 16.9 8.6 37 8.5 NNE 37 46 20 25 1016.9 1015.9 0.0
28/05:00pm 24.9 18.7 10.0 39 8.4 NNE 33 46 18 25 1017.2 1016.2 0.0
28/04:30pm 24.7 16.9 9.8 39 8.3 NNE 41 52 22 28 1017.2 1016.2 0.0
28/04:00pm 24.9 18.3 10.0 39 8.4 N 35 50 19 27 1017.6 1016.7 0.0
28/03:30pm 25.3 18.1 10.4 39 8.5 N 39 50 21 27 1017.9 1017.0 0.0
28/03:16pm 24.2 17.6 10.1 41 7.9 N 35 56 19 30 1018.0 1017.1 0.0
28/03:00pm 25.8 18.7 10.8 39 8.6 N 39 52 21 28 1018.2 1017.2 0.0
28/02:45pm 25.2 18.8 10.6 40 8.3 NNE 35 54 19 29 1018.5 1017.5 0.0
28/02:30pm 24.4 17.4 9.9 40 8.1 N 37 54 20 29 1018.5 1017.5 0.0
28/02:10pm 25.5 18.8 10.9 40 8.4 N 37 56 20 30 1018.8 1017.8 0.0
28/02:00pm 25.6 18.3 11.4 41 8.2 N 41 52 22 28 1018.9 1017.9 0.0
28/01:30pm 24.4 18.1 11.0 43 7.6 N 35 46 19 25 1019.5 1018.5 0.0
28/01:00pm 23.8 17.6 11.5 46 7.0 N 35 52 19 28 1020.0 1019.1 0.0
28/12:30pm 23.0 16.3 11.1 47 6.8 N 37 46 20 25 1020.4 1019.5 0.0
28/12:00pm 22.3 15.8 10.5 47 6.6 N 35 44 19 24 1020.9 1019.9 0.0
28/11:30am 22.2 15.9 11.0 49 6.3 NNE 35 50 19 27 1021.1 1020.1 0.0
28/11:00am 20.5 14.4 10.6 53 5.5 NNE 33 44 18 24 1021.3 1020.3 0.0
28/10:30am 19.5 12.9 10.0 54 5.2 NNE 35 48 19 26 1021.3 1020.3 0.0
28/10:00am 18.8 12.1 9.8 56 4.9 NNE 35 43 19 23 1021.4 1020.4 0.0
28/09:30am 18.1 11.9 9.2 56 4.8 NNE 32 37 17 20 1021.5 1020.5 0.0
28/09:00am 17.4 12.3 9.3 59 4.3 NNE 26 35 14 19 1021.5 1020.5 0.0
28/08:30am 16.4 11.5 8.6 60 4.1 NNE 24 30 13 16 1021.5 1020.5 0.0
28/08:00am 15.5 10.9 8.0 61 3.8 NE 22 30 12 16 1021.4 1020.4 0.0
28/07:30am 15.5 10.7 7.5 59 4.1 NNE 22 26 12 14 1021.4 1020.4 0.0
28/07:00am 15.7 10.8 7.0 56 4.4 NNE 22 30 12 16 1021.2 1020.2 0.0
28/06:30am 15.4 11.0 6.7 56 4.3 NNE 19 24 10 13 1021.2 1020.2 0.0
28/06:00am 14.5 10.0 6.3 58 4.0 NNE 19 20 10 11 1021.1 1020.1 0.0
28/05:30am 15.2 10.8 6.7 57 4.2 NNE 19 22 10 12 1021.2 1020.2 0.0
28/05:00am 14.6 10.7 7.2 61 3.7 NNE 17 19 9 10 1021.3 1020.3 0.0
28/04:30am 14.5 11.0 7.1 61 3.7 NNE 15 17 8 9 1021.4 1020.4 0.0
28/04:00am 13.8 10.7 7.1 64 3.3 NNE 13 13 7 7 1021.4 1020.4 0.0
28/03:30am 13.4 10.6 7.0 65 3.2 N 11 13 6 7 1021.6 1020.7 0.0
28/03:00am 13.9 10.7 6.7 62 3.5 NNE 13 15 7 8 1021.8 1020.9 0.0
28/02:30am 15.0 11.5 7.3 60 3.9 NE 15 17 8 9 1021.9 1021.0 0.0
28/02:00am 14.8 11.7 7.1 60 3.9 NE 13 15 7 8 1021.9 1021.0 0.0
28/01:30am 15.0 12.2 7.1 59 4.0 NE 11 13 6 7 1022.1 1021.2 0.0
28/01:00am 15.8 12.7 7.3 57 4.3 NE 13 15 7 8 1022.2 1021.3 0.0
28/12:30am 16.0 13.0 7.5 57 4.3 NE 13 17 7 9 1022.2 1021.3 0.0
28/12:00am 16.5 13.1 7.7 56 4.5 NE 15 19 8 10 1022.3 1021.4 0.0
 
Date/Time
EDT
Temp
°C
App
Temp
°C
Dew
Point
°C
Rel
Hum
%
Delta-T
°C
Wind Press
QNH
hPa
Press
MSL
hPa
Rain since
9am
mm
Dir  Spd
km/h
Gust
km/h
Spd
kts
Gust
kts
27/11:30pm 16.8 13.7 7.4 54 4.8 NE 13 15 7 8 1022.5 1021.6 0.0
27/11:00pm 17.7 14.3 7.7 52 5.2 NE 15 20 8 11 1022.6 1021.7 0.0
27/10:30pm 17.6 14.7 8.2 54 4.9 NE 13 17 7 9 1022.7 1021.8 0.0
27/10:00pm 17.6 15.0 7.9 53 5.0 NE 11 17 6 9 1022.8 1021.9 0.0
27/09:30pm 18.7 15.5 8.4 51 5.4 NE 15 19 8 10 1022.7 1021.8 0.0
27/09:00pm 18.7 15.9 8.7 52 5.3 NE 13 15 7 8 1022.6 1021.7 0.0
27/08:30pm 19.3 15.8 8.9 51 5.6 NNE 17 19 9 10 1022.3 1021.4 0.0
27/08:00pm 19.2 16.6 9.4 53 5.3 NNE 13 17 7 9 1022.3 1021.4 0.0
27/07:30pm 20.0 17.2 8.7 48 6.0 NNE 13 15 7 8 1022.1 1021.2 0.0
27/07:00pm 21.4 18.2 8.3 43 7.0 NNE 15 19 8 10 1022.0 1021.1 0.0
27/06:30pm 22.1 18.1 8.2 41 7.5 NNE 19 26 10 14 1022.0 1021.1 0.0
27/06:00pm 23.0 19.9 8.7 40 7.8 NNE 15 20 8 11 1022.0 1021.1 0.0
27/05:30pm 24.1 20.4 8.1 36 8.7 N 17 22 9 12 1022.2 1021.3 0.0
27/05:00pm 24.4 20.9 8.8 37 8.5 N 17 28 9 15 1022.3 1021.4 0.0
27/04:30pm 24.2 19.7 8.6 37 8.5 N 22 35 12 19 1022.5 1021.6 0.0

Other formats

Comma delimited format used in spreadsheet applications
http://www.bom.gov.au/fwo/IDV60801/IDV60801.94852.axf

JavaScript Object Notation format (JSON) in row-major order
http://www.bom.gov.au/fwo/IDV60801/IDV60801.94852.json

Data quality

Most of these data are generated automatically and are frequently updated. Quality checks on data are not normally performed. It is possible for incorrect values to appear. Refer to information at About Latest Weather Observations and please check the disclaimer before using these data.